Pontyberem, United Kingdom
Current Conditions -  °F | °C
As of 6:50 PM on Tuesday 27 Jan 2015 (Local Time) from EGOP Reporting Station
Broken Clouds Broken Clouds  
Wind Chill: 38°   Ceiling: 1600
Heat Index: 45°   Visibility: 6mi
Dew Point: 43°   Wind: 15mph
Humidity: 93%   Direction: 260°W
Pressure: 30.24"   Gusts: NA
Location:  51.78°N, 4.17°W
Report Text: EGOP 271850Z AUTO 26013KT 9999 // FEW005/// BKN016/// 07/06 Q1024
Loading
Personal Weather Stations






























Interactive Weather Map New forecast layout! Learn more

10-Day Weather Forecast

Advertisements
Track Severe Weather on mobile